sensor_id;sensor_type;location;lat;lon;timestamp;pressure;altitude;pressure_sealevel;temperature;humidity
29331;BME280;16331;52.528;13.342;2022-12-19T00:01:18;154807.16;;;-3.45;100.00
29331;BME280;16331;52.528;13.342;2022-12-19T00:03:51;154828.81;;;-3.37;100.00
29331;BME280;16331;52.528;13.342;2022-12-19T00:06:19;154857.22;;;-3.26;100.00
29331;BME280;16331;52.528;13.342;2022-12-19T00:08:47;154854.53;;;-3.27;100.00
29331;BME280;16331;52.528;13.342;2022-12-19T00:11:18;154857.22;;;-3.26;100.00
29331;BME280;16331;52.528;13.342;2022-12-19T00:13:45;154853.16;;;-3.28;100.00
29331;BME280;16331;52.528;13.342;2022-12-19T00:16:14;154866.69;;;-3.23;100.00
29331;BME280;16331;52.528;13.342;2022-12-19T00:18:47;154874.81;;;-3.20;100.00
29331;BME280;16331;52.528;13.342;2022-12-19T00:21:15;154858.56;;;-3.26;100.00
29331;BME280;16331;52.528;13.342;2022-12-19T00:23:42;154865.31;;;-3.23;100.00
29331;BME280;16331;52.528;13.342;2022-12-19T00:26:29;154855.88;;;-3.27;100.00
29331;BME280;16331;52.528;13.342;2022-12-19T00:29:01;154899.19;;;-3.11;100.00
29331;BME280;16331;52.528;13.342;2022-12-19T00:31:29;154916.75;;;-3.04;100.00
29331;BME280;16331;52.528;13.342;2022-12-19T00:33:56;154945.22;;;-2.93;100.00
29331;BME280;16331;52.528;13.342;2022-12-19T00:36:26;154939.78;;;-2.96;100.00
29331;BME280;16331;52.528;13.342;2022-12-19T00:38:55;154918.13;;;-3.04;100.00
29331;BME280;16331;52.528;13.342;2022-12-19T00:41:26;154947.91;;;-2.92;100.00
29331;BME280;16331;52.528;13.342;2022-12-19T00:44:00;154939.78;;;-2.96;100.00
29331;BME280;16331;52.528;13.342;2022-12-19T00:46:28;154915.44;;;-3.05;100.00
29331;BME280;16331;52.528;13.342;2022-12-19T00:48:56;154915.44;;;-3.05;100.00
29331;BME280;16331;52.528;13.342;2022-12-19T00:51:24;154934.34;;;-2.98;100.00
29331;BME280;16331;52.528;13.342;2022-12-19T00:53:52;154941.16;;;-2.95;100.00
29331;BME280;16331;52.528;13.342;2022-12-19T00:56:22;154942.53;;;-2.94;100.00
29331;BME280;16331;52.528;13.342;2022-12-19T00:58:50;154942.53;;;-2.94;100.00
29331;BME280;16331;52.528;13.342;2022-12-19T01:01:19;154954.69;;;-2.90;100.00
29331;BME280;16331;52.528;13.342;2022-12-19T01:03:47;154960.09;;;-2.88;100.00
29331;BME280;16331;52.528;13.342;2022-12-19T01:06:14;154956.03;;;-2.89;100.00
29331;BME280;16331;52.528;13.342;2022-12-19T01:08:40;154945.22;;;-2.93;100.00
29331;BME280;16331;52.528;13.342;2022-12-19T01:11:07;154961.44;;;-2.87;100.00
29331;BME280;16331;52.528;13.342;2022-12-19T01:13:35;154953.34;;;-2.90;100.00
29331;BME280;16331;52.528;13.342;2022-12-19T01:16:10;154968.25;;;-2.85;100.00
29331;BME280;16331;52.528;13.342;2022-12-19T01:18:37;154987.19;;;-2.78;100.00
29331;BME280;16331;52.528;13.342;2022-12-19T01:21:06;154991.25;;;-2.76;100.00
29331;BME280;16331;52.528;13.342;2022-12-19T01:23:35;154992.59;;;-2.76;100.00
29331;BME280;16331;52.528;13.342;2022-12-19T01:26:01;154987.19;;;-2.78;100.00
29331;BME280;16331;52.528;13.342;2022-12-19T01:28:29;154993.97;;;-2.75;100.00
29331;BME280;16331;52.528;13.342;2022-12-19T01:30:58;154969.56;;;-2.84;100.00
29331;BME280;16331;52.528;13.342;2022-12-19T01:33:25;154981.75;;;-2.80;100.00
29331;BME280;16331;52.528;13.342;2022-12-19T01:35:51;154965.50;;;-2.86;100.00
29331;BME280;16331;52.528;13.342;2022-12-19T01:38:19;154954.69;;;-2.90;100.00
29331;BME280;16331;52.528;13.342;2022-12-19T01:40:50;154954.69;;;-2.90;100.00
29331;BME280;16331;52.528;13.342;2022-12-19T01:43:17;154949.28;;;-2.92;100.00
29331;BME280;16331;52.528;13.342;2022-12-19T01:45:45;154980.44;;;-2.80;100.00
29331;BME280;16331;52.528;13.342;2022-12-19T01:48:21;154970.94;;;-2.84;100.00
29331;BME280;16331;52.528;13.342;2022-12-19T01:51:15;154964.13;;;-2.86;100.00
29331;BME280;16331;52.528;13.342;2022-12-19T01:54:03;154969.56;;;-2.84;100.00
29331;BME280;16331;52.528;13.342;2022-12-19T01:56:35;154954.69;;;-2.90;100.00
29331;BME280;16331;52.528;13.342;2022-12-19T01:59:12;154961.44;;;-2.87;100.00
29331;BME280;16331;52.528;13.342;2022-12-19T02:01:41;154960.09;;;-2.88;100.00
29331;BME280;16331;52.528;13.342;2022-12-19T02:04:07;154965.50;;;-2.86;100.00
29331;BME280;16331;52.528;13.342;2022-12-19T02:06:34;154958.75;;;-2.88;100.00
29331;BME280;16331;52.528;13.342;2022-12-19T02:09:02;154965.50;;;-2.86;100.00
29331;BME280;16331;52.528;13.342;2022-12-19T02:11:28;154985.81;;;-2.78;100.00
29331;BME280;16331;52.528;13.342;2022-12-19T02:13:57;154965.50;;;-2.86;100.00
29331;BME280;16331;52.528;13.342;2022-12-19T02:28:21;154983.13;;;-2.79;100.00
29331;BME280;16331;52.528;13.342;2022-12-19T02:31:07;154969.56;;;-2.84;100.00
29331;BME280;16331;52.528;13.342;2022-12-19T02:36:40;154975.00;;;-2.82;100.00
29331;BME280;16331;52.528;13.342;2022-12-19T02:41:55;155002.09;;;-2.72;100.00
29331;BME280;16331;52.528;13.342;2022-12-19T02:44:27;154983.13;;;-2.79;100.00
29331;BME280;16331;52.528;13.342;2022-12-19T02:46:55;154983.13;;;-2.79;100.00
29331;BME280;16331;52.528;13.342;2022-12-19T02:49:22;154980.44;;;-2.80;100.00
29331;BME280;16331;52.528;13.342;2022-12-19T02:51:50;154983.13;;;-2.79;100.00
29331;BME280;16331;52.528;13.342;2022-12-19T02:54:16;154991.25;;;-2.76;100.00
29331;BME280;16331;52.528;13.342;2022-12-19T02:57:03;154998.03;;;-2.74;100.00
29331;BME280;16331;52.528;13.342;2022-12-19T03:00:07;154996.66;;;-2.74;100.00
29331;BME280;16331;52.528;13.342;2022-12-19T03:08:52;155007.47;;;-2.70;100.00
29331;BME280;16331;52.528;13.342;2022-12-19T03:11:21;155012.91;;;-2.68;100.00
29331;BME280;16331;52.528;13.342;2022-12-19T03:13:59;155022.41;;;-2.65;100.00
29331;BME280;16331;52.528;13.342;2022-12-19T03:16:27;155034.56;;;-2.60;100.00
29331;BME280;16331;52.528;13.342;2022-12-19T03:18:53;155021.03;;;-2.65;100.00
29331;BME280;16331;52.528;13.342;2022-12-19T03:21:36;155022.41;;;-2.65;100.00
29331;BME280;16331;52.528;13.342;2022-12-19T03:24:04;155035.94;;;-2.60;100.00
29331;BME280;16331;52.528;13.342;2022-12-19T03:26:38;155038.63;;;-2.59;100.00
29331;BME280;16331;52.528;13.342;2022-12-19T03:29:08;155046.75;;;-2.56;100.00
29331;BME280;16331;52.528;13.342;2022-12-19T03:31:39;155053.56;;;-2.53;100.00
29331;BME280;16331;52.528;13.342;2022-12-19T03:34:27;155053.56;;;-2.53;100.00
29331;BME280;16331;52.528;13.342;2022-12-19T03:36:57;155040.00;;;-2.58;100.00
29331;BME280;16331;52.528;13.342;2022-12-19T03:39:26;155048.13;;;-2.55;100.00
29331;BME280;16331;52.528;13.342;2022-12-19T03:41:54;155045.44;;;-2.56;100.00
29331;BME280;16331;52.528;13.342;2022-12-19T03:44:43;155057.63;;;-2.52;100.00
29331;BME280;16331;52.528;13.342;2022-12-19T03:47:33;155076.56;;;-2.45;100.00
29331;BME280;16331;52.528;13.342;2022-12-19T03:50:00;155053.56;;;-2.53;100.00
29331;BME280;16331;52.528;13.342;2022-12-19T03:55:36;155031.88;;;-2.61;100.00
29331;BME280;16331;52.528;13.342;2022-12-19T03:58:12;155059.00;;;-2.51;100.00
29331;BME280;16331;52.528;13.342;2022-12-19T04:00:43;155073.88;;;-2.46;100.00
29331;BME280;16331;52.528;13.342;2022-12-19T04:03:12;155052.19;;;-2.54;100.00
29331;BME280;16331;52.528;13.342;2022-12-19T04:05:41;155033.25;;;-2.61;100.00
29331;BME280;16331;52.528;13.342;2022-12-19T04:08:08;155044.06;;;-2.57;100.00
29331;BME280;16331;52.528;13.342;2022-12-19T04:10:44;155061.69;;;-2.50;100.00
29331;BME280;16331;52.528;13.342;2022-12-19T04:13:18;155059.00;;;-2.51;100.00
29331;BME280;16331;52.528;13.342;2022-12-19T04:18:40;155069.81;;;-2.47;100.00
29331;BME280;16331;52.528;13.342;2022-12-19T04:21:26;155033.25;;;-2.61;100.00
29331;BME280;16331;52.528;13.342;2022-12-19T04:24:06;155044.06;;;-2.57;100.00
29331;BME280;16331;52.528;13.342;2022-12-19T04:26:34;155053.56;;;-2.53;100.00
29331;BME280;16331;52.528;13.342;2022-12-19T04:29:04;155053.56;;;-2.53;100.00
29331;BME280;16331;52.528;13.342;2022-12-19T04:31:31;155037.31;;;-2.59;100.00
29331;BME280;16331;52.528;13.342;2022-12-19T04:33:57;155052.19;;;-2.54;100.00
29331;BME280;16331;52.528;13.342;2022-12-19T04:36:24;155067.13;;;-2.48;100.00
29331;BME280;16331;52.528;13.342;2022-12-19T04:38:51;155031.88;;;-2.61;100.00
29331;BME280;16331;52.528;13.342;2022-12-19T04:41:17;155016.97;;;-2.67;100.00
29331;BME280;16331;52.528;13.342;2022-12-19T04:43:43;155023.75;;;-2.64;100.00
29331;BME280;16331;52.528;13.342;2022-12-19T04:46:09;155019.72;;;-2.66;100.00
29331;BME280;16331;52.528;13.342;2022-12-19T04:48:36;155006.16;;;-2.71;100.00
29331;BME280;16331;52.528;13.342;2022-12-19T04:51:02;155014.28;;;-2.68;100.00
29331;BME280;16331;52.528;13.342;2022-12-19T04:53:28;155015.66;;;-2.67;100.00
29331;BME280;16331;52.528;13.342;2022-12-19T04:56:05;154996.66;;;-2.74;100.00
29331;BME280;16331;52.528;13.342;2022-12-19T04:58:32;154983.13;;;-2.79;100.00
29331;BME280;16331;52.528;13.342;2022-12-19T05:01:02;154977.69;;;-2.81;100.00
29331;BME280;16331;52.528;13.342;2022-12-19T05:03:28;155000.72;;;-2.73;100.00
29331;BME280;16331;52.528;13.342;2022-12-19T05:06:03;154996.66;;;-2.74;100.00
29331;BME280;16331;52.528;13.342;2022-12-19T05:08:30;154992.59;;;-2.76;100.00
29331;BME280;16331;52.528;13.342;2022-12-19T05:11:01;154981.75;;;-2.80;100.00
29331;BME280;16331;52.528;13.342;2022-12-19T05:13:28;154977.69;;;-2.81;100.00
29331;BME280;16331;52.528;13.342;2022-12-19T05:15:59;154956.03;;;-2.89;100.00
29331;BME280;16331;52.528;13.342;2022-12-19T05:18:26;154962.81;;;-2.87;100.00
29331;BME280;16331;52.528;13.342;2022-12-19T05:20:53;154966.88;;;-2.85;100.00
29331;BME280;16331;52.528;13.342;2022-12-19T05:23:20;154966.88;;;-2.85;100.00
29331;BME280;16331;52.528;13.342;2022-12-19T05:25:46;154993.97;;;-2.75;100.00
29331;BME280;16331;52.528;13.342;2022-12-19T05:28:12;154984.50;;;-2.79;100.00
29331;BME280;16331;52.528;13.342;2022-12-19T05:30:39;154972.31;;;-2.83;100.00
29331;BME280;16331;52.528;13.342;2022-12-19T05:33:05;154969.56;;;-2.84;100.00
29331;BME280;16331;52.528;13.342;2022-12-19T05:35:33;154961.44;;;-2.87;100.00
29331;BME280;16331;52.528;13.342;2022-12-19T05:38:00;154977.69;;;-2.81;100.00
29331;BME280;16331;52.528;13.342;2022-12-19T05:40:27;154991.25;;;-2.76;100.00
29331;BME280;16331;52.528;13.342;2022-12-19T05:42:53;154975.00;;;-2.82;100.00
29331;BME280;16331;52.528;13.342;2022-12-19T05:45:19;155003.41;;;-2.72;100.00
29331;BME280;16331;52.528;13.342;2022-12-19T05:47:46;155018.34;;;-2.66;100.00
29331;BME280;16331;52.528;13.342;2022-12-19T05:50:16;155004.78;;;-2.71;100.00
29331;BME280;16331;52.528;13.342;2022-12-19T05:52:43;155034.56;;;-2.60;100.00
29331;BME280;16331;52.528;13.342;2022-12-19T05:55:10;155065.75;;;-2.49;100.00
29331;BME280;16331;52.528;13.342;2022-12-19T05:57:37;155052.19;;;-2.54;100.00
29331;BME280;16331;52.528;13.342;2022-12-19T06:00:04;155048.13;;;-2.55;100.00
29331;BME280;16331;52.528;13.342;2022-12-19T06:02:33;155045.44;;;-2.56;100.00
29331;BME280;16331;52.528;13.342;2022-12-19T06:04:59;155067.13;;;-2.48;100.00
29331;BME280;16331;52.528;13.342;2022-12-19T06:07:25;155088.78;;;-2.40;100.00
29331;BME280;16331;52.528;13.342;2022-12-19T06:09:51;155088.78;;;-2.40;100.00
29331;BME280;16331;52.528;13.342;2022-12-19T06:12:18;155090.09;;;-2.40;100.00
29331;BME280;16331;52.528;13.342;2022-12-19T06:14:44;155080.66;;;-2.43;100.00
29331;BME280;16331;52.528;13.342;2022-12-19T06:17:11;155080.66;;;-2.43;100.00
29331;BME280;16331;52.528;13.342;2022-12-19T06:19:38;155067.13;;;-2.48;100.00
29331;BME280;16331;52.528;13.342;2022-12-19T06:22:04;155045.44;;;-2.56;100.00
29331;BME280;16331;52.528;13.342;2022-12-19T06:24:30;155076.56;;;-2.45;100.00
29331;BME280;16331;52.528;13.342;2022-12-19T06:26:56;155086.03;;;-2.41;100.00
29331;BME280;16331;52.528;13.342;2022-12-19T06:29:22;155096.91;;;-2.37;100.00
29331;BME280;16331;52.528;13.342;2022-12-19T06:31:48;155099.59;;;-2.36;100.00
29331;BME280;16331;52.528;13.342;2022-12-19T06:34:14;155100.97;;;-2.36;100.00
29331;BME280;16331;52.528;13.342;2022-12-19T06:36:41;155095.53;;;-2.38;100.00
29331;BME280;16331;52.528;13.342;2022-12-19T06:39:08;155100.97;;;-2.36;100.00
29331;BME280;16331;52.528;13.342;2022-12-19T06:41:37;155094.16;;;-2.38;100.00
29331;BME280;16331;52.528;13.342;2022-12-19T06:44:21;155137.53;;;-2.22;100.00
29331;BME280;16331;52.528;13.342;2022-12-19T06:46:48;155156.50;;;-2.15;100.00
29331;BME280;16331;52.528;13.342;2022-12-19T06:49:14;155168.69;;;-2.11;100.00
29331;BME280;16331;52.528;13.342;2022-12-19T06:51:40;155168.69;;;-2.11;100.00
29331;BME280;16331;52.528;13.342;2022-12-19T06:54:06;155167.31;;;-2.11;100.00
29331;BME280;16331;52.528;13.342;2022-12-19T06:56:37;155184.94;;;-2.05;100.00
29331;BME280;16331;52.528;13.342;2022-12-19T06:59:04;155194.44;;;-2.01;100.00
29331;BME280;16331;52.528;13.342;2022-12-19T07:01:50;155205.31;;;-1.97;100.00
29331;BME280;16331;52.528;13.342;2022-12-19T07:04:23;155228.31;;;-1.89;100.00
29331;BME280;16331;52.528;13.342;2022-12-19T07:06:50;155256.81;;;-1.78;100.00
29331;BME280;16331;52.528;13.342;2022-12-19T07:09:16;155263.56;;;-1.76;100.00
29331;BME280;16331;52.528;13.342;2022-12-19T07:11:44;155281.19;;;-1.69;100.00
29331;BME280;16331;52.528;13.342;2022-12-19T07:14:10;155256.81;;;-1.78;100.00
29331;BME280;16331;52.528;13.342;2022-12-19T07:16:38;155273.06;;;-1.72;100.00
29331;BME280;16331;52.528;13.342;2022-12-19T07:19:05;155255.44;;;-1.79;100.00
29331;BME280;16331;52.528;13.342;2022-12-19T07:21:32;155281.19;;;-1.69;100.00
29331;BME280;16331;52.528;13.342;2022-12-19T07:23:59;155275.75;;;-1.71;100.00
29331;BME280;16331;52.528;13.342;2022-12-19T07:26:26;155317.81;;;-1.56;100.00
29331;BME280;16331;52.528;13.342;2022-12-19T07:28:53;155321.91;;;-1.54;100.00
29331;BME280;16331;52.528;13.342;2022-12-19T07:31:23;155316.44;;;-1.56;100.00
29331;BME280;16331;52.528;13.342;2022-12-19T07:33:49;155335.47;;;-1.49;100.00
29331;BME280;16331;52.528;13.342;2022-12-19T07:36:15;155311.03;;;-1.58;100.00
29331;BME280;16331;52.528;13.342;2022-12-19T07:38:41;155320.53;;;-1.55;100.00
29331;BME280;16331;52.528;13.342;2022-12-19T07:41:07;155344.91;;;-1.46;100.00
29331;BME280;16331;52.528;13.342;2022-12-19T07:43:34;155323.22;;;-1.54;100.00
29331;BME280;16331;52.528;13.342;2022-12-19T07:46:00;155346.28;;;-1.45;100.00
29331;BME280;16331;52.528;13.342;2022-12-19T07:48:27;155373.41;;;-1.35;100.00
29331;BME280;16331;52.528;13.342;2022-12-19T07:50:55;155395.13;;;-1.27;100.00
29331;BME280;16331;52.528;13.342;2022-12-19T07:53:21;155419.50;;;-1.18;100.00
29331;BME280;16331;52.528;13.342;2022-12-19T07:55:50;155378.84;;;-1.33;100.00
29331;BME280;16331;52.528;13.342;2022-12-19T07:58:17;155411.38;;;-1.21;100.00
29331;BME280;16331;52.528;13.342;2022-12-19T08:00:44;155404.63;;;-1.23;100.00
29331;BME280;16331;52.528;13.342;2022-12-19T08:03:10;155408.69;;;-1.22;100.00
29331;BME280;16331;52.528;13.342;2022-12-19T08:05:36;155410.00;;;-1.21;100.00
29331;BME280;16331;52.528;13.342;2022-12-19T08:08:02;155395.13;;;-1.27;100.00
29331;BME280;16331;52.528;13.342;2022-12-19T08:10:28;155400.56;;;-1.25;100.00
29331;BME280;16331;52.528;13.342;2022-12-19T08:12:57;155418.13;;;-1.18;100.00
29331;BME280;16331;52.528;13.342;2022-12-19T08:15:25;155430.38;;;-1.14;100.00
29331;BME280;16331;52.528;13.342;2022-12-19T08:17:53;155454.78;;;-1.05;100.00
29331;BME280;16331;52.528;13.342;2022-12-19T08:20:20;155468.34;;;-1.00;100.00
29331;BME280;16331;52.528;13.342;2022-12-19T08:22:46;155476.50;;;-0.97;100.00
29331;BME280;16331;52.528;13.342;2022-12-19T08:25:13;155469.72;;;-0.99;100.00
29331;BME280;16331;52.528;13.342;2022-12-19T08:27:39;155465.66;;;-1.01;100.00
29331;BME280;16331;52.528;13.342;2022-12-19T08:30:07;155502.28;;;-0.87;100.00
29331;BME280;16331;52.528;13.342;2022-12-19T08:32:34;155536.19;;;-0.75;100.00
29331;BME280;16331;52.528;13.342;2022-12-19T08:35:00;155543.00;;;-0.72;100.00
29331;BME280;16331;52.528;13.342;2022-12-19T08:37:26;155540.25;;;-0.73;100.00
29331;BME280;16331;52.528;13.342;2022-12-19T08:39:52;155581.00;;;-0.58;100.00
29331;BME280;16331;52.528;13.342;2022-12-19T08:42:18;155593.19;;;-0.54;100.00
29331;BME280;16331;52.528;13.342;2022-12-19T08:44:44;155618.97;;;-0.44;100.00
29331;BME280;16331;52.528;13.342;2022-12-19T08:47:10;155628.50;;;-0.41;100.00
29331;BME280;16331;52.528;13.342;2022-12-19T08:49:37;155647.50;;;-0.34;100.00
29331;BME280;16331;52.528;13.342;2022-12-19T08:52:04;155631.19;;;-0.40;100.00
29331;BME280;16331;52.528;13.342;2022-12-19T08:54:30;155613.53;;;-0.46;100.00
29331;BME280;16331;52.528;13.342;2022-12-19T08:56:56;155650.22;;;-0.33;100.00
29331;BME280;16331;52.528;13.342;2022-12-19T08:59:23;155661.03;;;-0.29;100.00
29331;BME280;16331;52.528;13.342;2022-12-19T09:01:49;155650.22;;;-0.33;100.00
29331;BME280;16331;52.528;13.342;2022-12-19T09:04:16;155659.72;;;-0.29;100.00
29331;BME280;16331;52.528;13.342;2022-12-19T09:06:42;155676.00;;;-0.23;100.00
29331;BME280;16331;52.528;13.342;2022-12-19T09:09:08;155693.66;;;-0.17;100.00
29331;BME280;16331;52.528;13.342;2022-12-19T09:11:35;155697.72;;;-0.15;100.00
29331;BME280;16331;52.528;13.342;2022-12-19T09:14:02;155733.03;;;-0.02;100.00
29331;BME280;16331;52.528;13.342;2022-12-19T09:16:30;155745.25;;;0.03;100.00
29331;BME280;16331;52.528;13.342;2022-12-19T09:18:56;155734.38;;;-0.02;100.00
29331;BME280;16331;52.528;13.342;2022-12-19T09:21:27;155739.81;;;0.00;100.00
29331;BME280;16331;52.528;13.342;2022-12-19T09:23:56;155750.72;;;0.05;100.00
29331;BME280;16331;52.528;13.342;2022-12-19T09:26:24;155788.72;;;0.19;100.00
29331;BME280;16331;52.528;13.342;2022-12-19T09:28:51;155769.69;;;0.12;100.00
29331;BME280;16331;52.528;13.342;2022-12-19T09:31:20;155773.75;;;0.13;100.00
29331;BME280;16331;52.528;13.342;2022-12-19T09:33:48;155788.72;;;0.19;100.00
29331;BME280;16331;52.528;13.342;2022-12-19T09:36:16;155813.16;;;0.28;100.00
29331;BME280;16331;52.528;13.342;2022-12-19T09:38:43;155837.63;;;0.37;100.00
29331;BME280;16331;52.528;13.342;2022-12-19T09:41:30;155897.41;;;0.59;100.00
29331;BME280;16331;52.528;13.342;2022-12-19T09:44:33;155902.84;;;0.61;100.00
29331;BME280;16331;52.528;13.342;2022-12-19T09:47:16;155881.13;;;0.53;100.00
29331;BME280;16331;52.528;13.342;2022-12-19T09:49:47;155878.38;;;0.52;100.00
29331;BME280;16331;52.528;13.342;2022-12-19T09:55:27;155954.50;;;0.80;100.00
29331;BME280;16331;52.528;13.342;2022-12-19T09:58:11;155965.34;;;0.84;100.00
29331;BME280;16331;52.528;13.342;2022-12-19T10:00:46;155993.91;;;0.94;100.00
29331;BME280;16331;52.528;13.342;2022-12-19T10:03:23;156007.47;;;0.99;100.00
29331;BME280;16331;52.528;13.342;2022-12-19T10:08:52;156010.22;;;1.00;100.00
29331;BME280;16331;52.528;13.342;2022-12-19T10:11:34;156029.22;;;1.07;100.00
29331;BME280;16331;52.528;13.342;2022-12-19T10:17:26;156068.66;;;1.22;100.00
29331;BME280;16331;52.528;13.342;2022-12-19T10:20:18;156074.09;;;1.24;100.00
29331;BME280;16331;52.528;13.342;2022-12-19T10:25:58;156136.69;;;1.47;100.00
29331;BME280;16331;52.528;13.342;2022-12-19T10:34:40;156206.03;;;1.73;100.00
29331;BME280;16331;52.528;13.342;2022-12-19T10:37:23;156203.28;;;1.72;100.00
29331;BME280;16331;52.528;13.342;2022-12-19T10:42:44;156222.34;;;1.79;100.00
29331;BME280;16331;52.528;13.342;2022-12-19T10:45:19;156248.22;;;1.88;100.00
29331;BME280;16331;52.528;13.342;2022-12-19T10:47:50;156250.91;;;1.89;100.00
29331;BME280;16331;52.528;13.342;2022-12-19T10:50:28;156290.38;;;2.04;100.00
29331;BME280;16331;52.528;13.342;2022-12-19T10:53:09;156308.06;;;2.10;100.00
29331;BME280;16331;52.528;13.342;2022-12-19T10:55:49;156257.75;;;1.92;100.00
29331;BME280;16331;52.528;13.342;2022-12-19T10:58:27;156306.69;;;2.10;100.00
29331;BME280;16331;52.528;13.342;2022-12-19T11:01:08;156370.69;;;2.33;100.00
29331;BME280;16331;52.528;13.342;2022-12-19T11:03:38;156309.44;;;2.11;100.00
29331;BME280;16331;52.528;13.342;2022-12-19T11:06:36;156328.47;;;2.18;100.00
29331;BME280;16331;52.528;13.342;2022-12-19T11:09:18;156309.44;;;2.11;100.00
29331;BME280;16331;52.528;13.342;2022-12-19T11:11:49;156298.53;;;2.07;100.00
29331;BME280;16331;52.528;13.342;2022-12-19T11:14:23;156289.06;;;2.03;100.00
29331;BME280;16331;52.528;13.342;2022-12-19T11:16:50;156310.81;;;2.11;100.00
29331;BME280;16331;52.528;13.342;2022-12-19T11:19:34;156297.22;;;2.06;100.00
29331;BME280;16331;52.528;13.342;2022-12-19T11:22:07;156257.75;;;1.92;100.00
29331;BME280;16331;52.528;13.342;2022-12-19T11:24:46;156211.44;;;1.75;100.00
29331;BME280;16331;52.528;13.342;2022-12-19T11:27:39;156201.97;;;1.71;100.00
29331;BME280;16331;52.528;13.342;2022-12-19T11:30:23;156218.28;;;1.77;100.00
29331;BME280;16331;52.528;13.342;2022-12-19T11:33:08;156223.75;;;1.79;100.00
29331;BME280;16331;52.528;13.342;2022-12-19T11:35:54;156214.19;;;1.76;100.00
29331;BME280;16331;52.528;13.342;2022-12-19T11:38:42;156214.19;;;1.76;100.00
29331;BME280;16331;52.528;13.342;2022-12-19T11:41:19;156229.13;;;1.81;100.00
29331;BME280;16331;52.528;13.342;2022-12-19T11:43:54;156215.53;;;1.76;100.00
29331;BME280;16331;52.528;13.342;2022-12-19T11:49:03;156211.44;;;1.75;100.00
29331;BME280;16331;52.528;13.342;2022-12-19T11:51:49;156218.28;;;1.77;100.00
29331;BME280;16331;52.528;13.342;2022-12-19T11:54:37;156215.53;;;1.76;100.00
29331;BME280;16331;52.528;13.342;2022-12-19T11:57:10;156246.81;;;1.88;100.00
29331;BME280;16331;52.528;13.342;2022-12-19T11:59:39;156269.97;;;1.96;100.00
29331;BME280;16331;52.528;13.342;2022-12-19T12:02:40;156204.66;;;1.72;100.00
29331;BME280;16331;52.528;13.342;2022-12-19T12:08:40;156199.22;;;1.70;100.00
29331;BME280;16331;52.528;13.342;2022-12-19T12:11:29;156233.22;;;1.83;100.00
29331;BME280;16331;52.528;13.342;2022-12-19T12:23:03;156245.50;;;1.87;100.00
29331;BME280;16331;52.528;13.342;2022-12-19T12:25:52;156259.06;;;1.92;100.00
29331;BME280;16331;52.528;13.342;2022-12-19T12:42:54;156231.91;;;1.82;100.00
29331;BME280;16331;52.528;13.342;2022-12-19T12:45:39;156275.44;;;1.98;100.00
29331;BME280;16331;52.528;13.342;2022-12-19T12:51:00;156282.22;;;2.01;100.00
29331;BME280;16331;52.528;13.342;2022-12-19T12:53:36;156316.22;;;2.13;100.00
29331;BME280;16331;52.528;13.342;2022-12-19T12:56:06;156256.38;;;1.91;100.00
29331;BME280;16331;52.528;13.342;2022-12-19T13:04:03;156286.28;;;2.02;100.00
29331;BME280;16331;52.528;13.342;2022-12-19T13:09:25;156283.59;;;2.01;100.00
29331;BME280;16331;52.528;13.342;2022-12-19T13:12:11;156291.75;;;2.04;100.00
29331;BME280;16331;52.528;13.342;2022-12-19T13:15:25;156314.91;;;2.13;100.00
29331;BME280;16331;52.528;13.342;2022-12-19T13:18:01;156297.22;;;2.06;100.00
29331;BME280;16331;52.528;13.342;2022-12-19T13:20:41;156313.53;;;2.12;100.00
29331;BME280;16331;52.528;13.342;2022-12-19T13:25:52;156313.53;;;2.12;100.00
29331;BME280;16331;52.528;13.342;2022-12-19T13:28:38;155214.34;;;2.12;100.00
29331;BME280;16331;52.528;13.342;2022-12-19T13:36:53;146367.78;;;2.12;100.00
29331;BME280;16331;52.528;13.342;2022-12-19T13:42:25;137850.44;;;2.07;100.00
29331;BME280;16331;52.528;13.342;2022-12-19T13:45:26;133636.06;;;2.20;100.00
29331;BME280;16331;52.528;13.342;2022-12-19T13:47:55;133627.91;;;2.17;100.00
29331;BME280;16331;52.528;13.342;2022-12-19T13:50:44;131160.63;;;2.20;100.00
29331;BME280;16331;52.528;13.342;2022-12-19T13:53:21;128680.25;;;2.16;100.00
29331;BME280;16331;52.528;13.342;2022-12-19T13:56:08;124104.13;;;2.21;100.00
29331;BME280;16331;52.528;13.342;2022-12-19T13:58:52;120925.41;;;2.18;100.00
29331;BME280;16331;52.528;13.342;2022-12-19T14:01:33;116718.59;;;2.27;100.00
29331;BME280;16331;52.528;13.342;2022-12-19T14:04:07;114965.41;;;2.30;100.00
29331;BME280;16331;52.528;13.342;2022-12-19T14:06:45;113196.00;;;2.25;100.00
29331;BME280;16331;52.528;13.342;2022-12-19T14:09:42;110383.59;;;2.24;100.00
29331;BME280;16331;52.528;13.342;2022-12-19T14:12:26;105852.28;;;2.42;100.00
29331;BME280;16331;52.528;13.342;2022-12-19T14:15:34;104429.63;;;2.31;100.00
29331;BME280;16331;52.528;13.342;2022-12-19T14:20:39;99530.72;;;2.36;100.00
29331;BME280;16331;52.528;13.342;2022-12-19T14:23:05;96402.66;;;2.49;100.00
29331;BME280;16331;52.528;13.342;2022-12-19T14:28:51;94281.56;;;2.36;100.00
29331;BME280;16331;52.528;13.342;2022-12-19T14:31:01;91837.53;;;2.38;100.00
29331;BME280;16331;52.528;13.342;2022-12-19T14:33:45;88367.63;;;2.53;100.00
29331;BME280;16331;52.528;13.342;2022-12-19T14:36:13;86986.31;;;2.63;100.00
29331;BME280;16331;52.528;13.342;2022-12-19T14:38:40;87680.03;;;2.60;100.00
29331;BME280;16331;52.528;13.342;2022-12-19T14:44:15;86292.63;;;2.66;100.00
29331;BME280;16331;52.528;13.342;2022-12-19T14:46:41;85588.47;;;2.62;100.00
29331;BME280;16331;52.528;13.342;2022-12-19T14:49:25;84546.06;;;2.65;100.00